createdAt,value
2017-05-15T00:01:02.169Z,14.30
2017-05-15T00:03:30.805Z,14.20
2017-05-15T00:05:59.066Z,14.30
2017-05-15T00:08:28.382Z,14.40
2017-05-15T00:10:57.033Z,14.40
2017-05-15T00:13:25.685Z,14.30
2017-05-15T00:15:54.370Z,14.20
2017-05-15T00:18:23.022Z,14.30
2017-05-15T00:20:51.277Z,14.30
2017-05-15T00:23:20.575Z,14.40
2017-05-15T00:25:49.591Z,14.50
2017-05-15T00:28:18.238Z,14.50
2017-05-15T00:30:47.384Z,14.60
2017-05-15T00:33:15.633Z,14.50
2017-05-15T00:35:44.277Z,14.50
2017-05-15T00:38:12.949Z,14.30
2017-05-15T00:40:41.202Z,14.30
2017-05-15T00:43:09.855Z,14.00
2017-05-15T00:45:38.533Z,14.10
2017-05-15T00:48:07.186Z,14.20
2017-05-15T00:50:36.578Z,14.20
2017-05-15T00:53:04.865Z,14.50
2017-05-15T00:55:33.887Z,14.40
2017-05-15T00:58:02.131Z,14.40
2017-05-15T01:00:30.810Z,14.30
2017-05-15T01:02:59.457Z,14.40
2017-05-15T01:05:28.101Z,14.30
2017-05-15T01:07:57.151Z,14.30
2017-05-15T01:10:25.795Z,14.30
2017-05-15T01:12:54.438Z,14.20
2017-05-15T01:15:23.121Z,13.90
2017-05-15T01:17:51.771Z,14.30
2017-05-15T01:20:20.017Z,14.30
2017-05-15T01:22:48.862Z,14.40
2017-05-15T01:25:17.509Z,14.30
2017-05-15T01:27:46.154Z,14.20
2017-05-15T01:30:14.420Z,14.20
2017-05-15T01:32:43.437Z,14.40
2017-05-15T01:35:12.081Z,14.20
2017-05-15T01:37:40.994Z,14.20
2017-05-15T01:40:09.637Z,14.30
2017-05-15T01:42:38.289Z,14.20
2017-05-15T01:45:07.121Z,14.10
2017-05-15T01:47:35.765Z,14.00
2017-05-15T01:50:04.009Z,14.00
2017-05-15T01:52:32.593Z,14.00
2017-05-15T01:55:01.414Z,14.10
2017-05-15T01:57:30.059Z,14.10
2017-05-15T01:59:58.731Z,13.90
2017-05-15T02:02:27.747Z,14.00
2017-05-15T02:04:56.389Z,14.00
2017-05-15T02:07:25.106Z,14.00
2017-05-15T02:09:53.760Z,14.50
2017-05-15T02:12:22.010Z,14.50
2017-05-15T02:14:51.044Z,14.40
2017-05-15T02:17:20.069Z,14.50
2017-05-15T02:19:48.317Z,14.50
2017-05-15T02:22:16.980Z,14.30
2017-05-15T02:24:45.993Z,14.30
2017-05-15T02:27:14.641Z,14.40
2017-05-15T02:29:43.557Z,14.10
2017-05-15T02:32:12.569Z,13.90
2017-05-15T02:34:40.826Z,13.90
2017-05-15T02:37:09.710Z,14.30
2017-05-15T02:39:38.353Z,14.30
2017-05-15T02:42:06.999Z,14.20
2017-05-15T02:44:35.865Z,14.00
2017-05-15T02:47:04.509Z,14.20
2017-05-15T02:49:33.161Z,14.00
2017-05-15T02:52:02.239Z,14.20
2017-05-15T02:54:30.886Z,14.20
2017-05-15T02:56:59.901Z,14.00
2017-05-15T02:59:28.582Z,13.90
2017-05-15T03:01:57.594Z,13.80
2017-05-15T03:04:26.242Z,13.90
2017-05-15T03:06:55.295Z,13.90
2017-05-15T03:09:23.946Z,14.20
2017-05-15T03:11:52.599Z,14.00
2017-05-15T03:14:21.277Z,14.20
2017-05-15T03:16:49.917Z,14.10
2017-05-15T03:19:18.562Z,13.80
2017-05-15T03:21:47.244Z,13.50
2017-05-15T03:24:16.258Z,13.70
2017-05-15T03:26:44.910Z,13.60
2017-05-15T03:29:13.953Z,13.80
2017-05-15T03:31:42.602Z,13.50
2017-05-15T03:34:11.242Z,13.40
2017-05-15T03:36:40.169Z,13.30
2017-05-15T03:39:08.815Z,13.50
2017-05-15T03:41:37.077Z,13.50
2017-05-15T03:44:06.018Z,13.10
2017-05-15T03:46:35.040Z,13.00
2017-05-15T03:49:03.685Z,12.70
2017-05-15T03:51:32.726Z,13.00
2017-05-15T03:54:01.366Z,13.20
2017-05-15T03:56:29.622Z,13.20
2017-05-15T03:58:58.938Z,13.30
2017-05-15T04:01:27.958Z,13.50
2017-05-15T04:03:56.609Z,13.50
2017-05-15T04:06:25.294Z,13.70
2017-05-15T04:08:54.061Z,13.70
2017-05-15T04:11:22.316Z,13.60
2017-05-15T04:13:51.010Z,13.90
2017-05-15T04:16:19.661Z,13.80
2017-05-15T04:18:49.191Z,13.90
2017-05-15T04:21:17.802Z,13.90
2017-05-15T04:23:46.051Z,13.90
2017-05-15T04:26:14.698Z,14.10
2017-05-15T04:28:43.702Z,13.90
2017-05-15T04:31:11.953Z,13.90
2017-05-15T04:33:40.597Z,13.70
2017-05-15T04:36:09.734Z,13.80
2017-05-15T04:38:37.999Z,13.80
2017-05-15T04:41:06.645Z,13.60
2017-05-15T04:43:35.411Z,13.60
2017-05-15T04:46:04.053Z,13.30
2017-05-15T04:48:32.713Z,13.00
2017-05-15T04:51:00.991Z,13.00
2017-05-15T04:53:30.020Z,13.00
2017-05-15T04:55:58.666Z,12.90
2017-05-15T04:58:27.147Z,12.90
2017-05-15T05:00:56.280Z,12.50
2017-05-15T05:03:24.929Z,12.40
2017-05-15T05:05:53.597Z,12.40
2017-05-15T05:08:22.626Z,12.40
2017-05-15T05:10:50.886Z,12.40
2017-05-15T05:13:19.864Z,12.80
2017-05-15T05:15:48.882Z,12.80
2017-05-15T05:18:17.527Z,13.00
2017-05-15T05:21:08.311Z,13.40
2017-05-15T05:23:48.722Z,13.60
2017-05-15T05:26:39.292Z,13.70
2017-05-15T05:29:20.074Z,13.60
2017-05-15T05:32:00.706Z,13.10
2017-05-15T05:34:58.000Z,13.00
2017-05-15T05:37:47.285Z,13.10
2017-05-15T05:40:26.525Z,13.10
2017-05-15T05:43:07.347Z,12.80
2017-05-15T05:45:35.996Z,12.80
2017-05-15T05:48:04.681Z,12.80
2017-05-15T05:50:33.600Z,13.40
2017-05-15T05:53:01.853Z,13.40
2017-05-15T06:29:18.498Z,13.40
2017-05-15T06:31:47.145Z,13.50
2017-05-15T06:34:16.162Z,13.20
2017-05-15T06:36:44.434Z,13.20
2017-05-15T06:39:26.385Z,13.30
2017-05-15T06:42:15.766Z,13.20
2017-05-15T06:44:44.441Z,13.50
2017-05-15T06:47:13.057Z,13.80
2017-05-15T06:49:42.041Z,13.70
2017-05-15T06:52:10.694Z,13.40
2017-05-15T06:54:39.334Z,13.70
2017-05-15T06:57:08.285Z,13.50
2017-05-15T06:59:36.925Z,13.40
2017-05-15T07:02:05.575Z,13.40
2017-05-15T07:04:34.694Z,13.40
2017-05-15T07:07:02.844Z,13.30
2017-05-15T07:09:31.493Z,13.30
2017-05-15T07:12:00.318Z,13.40
2017-05-15T07:14:29.179Z,13.80
2017-05-15T07:16:57.801Z,13.70
2017-05-15T07:19:26.384Z,13.70
2017-05-15T07:21:55.045Z,13.50
2017-05-15T07:24:24.069Z,13.40
2017-05-15T07:26:52.837Z,13.80
2017-05-15T07:29:21.499Z,14.00
2017-05-15T07:31:50.531Z,14.40
2017-05-15T07:34:19.194Z,14.20
2017-05-15T07:36:47.836Z,14.50
2017-05-15T07:39:16.485Z,14.30
2017-05-15T07:41:45.427Z,14.40
2017-05-15T07:44:15.118Z,14.50
2017-05-15T07:46:43.885Z,14.70
2017-05-15T07:49:12.517Z,14.50
2017-05-15T07:51:41.169Z,14.60
2017-05-15T07:54:09.822Z,14.70
2017-05-15T07:56:38.513Z,14.90
2017-05-15T07:59:07.165Z,14.70
2017-05-15T08:01:35.997Z,14.80
2017-05-15T08:04:04.677Z,15.30
2017-05-15T08:06:34.318Z,15.10
2017-05-15T08:09:03.356Z,15.30
2017-05-15T08:11:32.307Z,15.30
2017-05-15T08:14:00.959Z,15.30
2017-05-15T08:16:29.496Z,15.30
2017-05-15T08:18:57.941Z,15.30
2017-05-15T08:21:27.761Z,14.90
2017-05-15T08:23:56.414Z,14.40
2017-05-15T08:26:25.078Z,14.50
2017-05-15T08:28:53.740Z,14.70
2017-05-15T08:31:22.400Z,15.40
2017-05-15T08:33:51.391Z,15.30
2017-05-15T08:36:19.636Z,15.30
2017-05-15T08:38:48.304Z,14.60
2017-05-15T08:41:17.074Z,14.80
2017-05-15T08:43:45.721Z,15.40
2017-05-15T08:46:14.353Z,15.70
2017-05-15T08:48:43.045Z,15.80
2017-05-15T08:51:11.700Z,15.80
2017-05-15T08:53:40.338Z,16.30
2017-05-15T08:56:09.389Z,16.40
2017-05-15T08:58:38.037Z,16.30
2017-05-15T09:01:06.670Z,15.60
2017-05-15T09:03:35.289Z,15.60
2017-05-15T09:06:03.943Z,16.00
2017-05-15T09:08:33.008Z,15.70
2017-05-15T09:11:01.884Z,16.30
2017-05-15T09:13:30.526Z,16.40
2017-05-15T09:15:59.167Z,16.50
2017-05-15T09:18:27.812Z,16.00
2017-05-15T09:20:56.456Z,16.50
2017-05-15T09:23:24.712Z,16.50
2017-05-15T09:25:53.477Z,16.70
2017-05-15T09:28:22.144Z,16.80
2017-05-15T09:30:50.397Z,16.80
2017-05-15T09:33:18.687Z,17.50
2017-05-15T09:35:47.336Z,18.30
2017-05-15T09:38:16.359Z,18.50
2017-05-15T09:40:45.054Z,18.00
2017-05-15T09:43:13.307Z,18.00
2017-05-15T09:45:41.941Z,17.90
2017-05-15T09:48:11.010Z,17.80
2017-05-15T09:50:39.232Z,17.80
2017-05-15T09:53:08.354Z,19.00
2017-05-15T09:55:37.008Z,19.10
2017-05-15T09:58:05.267Z,19.10
2017-05-15T10:00:33.927Z,18.20
2017-05-15T10:03:02.985Z,18.00
2017-05-15T10:05:31.222Z,18.00
2017-05-15T10:07:59.466Z,17.80
2017-05-15T10:10:28.227Z,18.80
2017-05-15T10:12:56.884Z,19.20
2017-05-15T10:15:25.905Z,19.40
2017-05-15T10:17:54.439Z,19.40
2017-05-15T10:20:23.054Z,19.10
2017-05-15T10:22:51.694Z,19.20
2017-05-15T10:25:20.931Z,19.20
2017-05-15T10:27:49.569Z,19.60
2017-05-15T10:30:18.213Z,19.80
2017-05-15T10:32:47.181Z,20.10
2017-05-15T10:35:16.192Z,20.20
2017-05-15T10:37:44.828Z,20.30
2017-05-15T10:40:13.748Z,20.70
2017-05-15T10:42:43.901Z,20.40
2017-05-15T10:45:12.526Z,20.40
2017-05-15T10:47:41.641Z,20.60
2017-05-15T10:50:10.294Z,19.90
2017-05-15T10:52:38.529Z,19.90
2017-05-15T10:55:07.198Z,20.20
2017-05-15T10:57:35.441Z,20.20
2017-05-15T11:00:04.077Z,20.70
2017-05-15T11:02:32.763Z,21.40
2017-05-15T11:05:01.401Z,21.20
2017-05-15T11:07:30.052Z,21.50
2017-05-15T11:09:59.088Z,21.60
2017-05-15T11:12:27.744Z,21.70
2017-05-15T11:14:56.740Z,21.40
2017-05-15T11:17:25.221Z,21.40
2017-05-15T11:19:54.225Z,22.30
2017-05-15T11:22:22.471Z,22.30
2017-05-15T11:24:51.221Z,22.40
2017-05-15T11:27:20.085Z,21.80
2017-05-15T11:29:49.070Z,22.60
2017-05-15T11:32:18.050Z,22.10
2017-05-15T11:34:46.298Z,22.10
2017-05-15T11:37:14.553Z,22.20
2017-05-15T11:39:43.285Z,22.90
2017-05-15T11:42:11.934Z,23.10
2017-05-15T11:44:40.578Z,22.90
2017-05-15T11:47:09.250Z,22.80
2017-05-15T11:49:37.899Z,22.80
2017-05-15T11:52:06.543Z,22.80
2017-05-15T11:54:35.227Z,23.70
2017-05-15T11:57:04.115Z,23.80
2017-05-15T11:59:32.767Z,23.00
2017-05-15T12:02:01.420Z,23.00
2017-05-15T12:04:29.685Z,23.00
2017-05-15T12:06:58.347Z,23.40
2017-05-15T12:09:27.026Z,23.70
2017-05-15T12:11:55.672Z,24.00
2017-05-15T12:14:24.311Z,24.20
2017-05-15T12:16:53.119Z,24.40
2017-05-15T12:19:22.122Z,24.60
2017-05-15T12:21:50.763Z,24.60
2017-05-15T12:24:19.693Z,24.40
2017-05-15T12:26:48.705Z,24.50
2017-05-15T12:29:17.353Z,24.60
2017-05-15T12:31:46.362Z,24.60
2017-05-15T12:34:14.598Z,24.60
2017-05-15T12:36:43.229Z,24.60
2017-05-15T12:39:11.906Z,24.90
2017-05-15T12:41:40.551Z,25.30
2017-05-15T12:44:08.808Z,25.30
2017-05-15T12:46:37.474Z,25.40
2017-05-15T12:49:06.124Z,24.70
2017-05-15T12:51:34.417Z,24.70
2017-05-15T12:54:03.242Z,25.70
2017-05-15T12:56:31.877Z,26.20
2017-05-15T12:59:00.529Z,26.20
2017-05-15T13:01:29.285Z,26.10
2017-05-15T13:03:57.921Z,25.90
2017-05-15T13:06:26.175Z,25.90
2017-05-15T13:08:54.856Z,25.60
2017-05-15T13:11:23.503Z,25.70
2017-05-15T13:13:52.132Z,25.90
2017-05-15T13:16:21.447Z,26.00
2017-05-15T13:18:50.100Z,26.50
2017-05-15T13:21:18.729Z,25.50
2017-05-15T13:23:47.399Z,25.40
2017-05-15T13:26:16.038Z,25.90
2017-05-15T13:28:45.008Z,26.20
2017-05-15T13:31:13.289Z,26.20
2017-05-15T13:33:41.933Z,26.90
2017-05-15T13:36:10.580Z,27.00
2017-05-15T13:38:39.250Z,26.80
2017-05-15T13:41:07.877Z,27.10
2017-05-15T13:43:36.533Z,27.50
2017-05-15T13:46:05.451Z,27.40
2017-05-15T13:48:34.108Z,26.70
2017-05-15T13:51:02.742Z,27.00
2017-05-15T13:53:31.017Z,27.00
2017-05-15T13:55:59.678Z,26.90
2017-05-15T13:58:28.450Z,27.50
2017-05-15T14:00:57.375Z,27.60
2017-05-15T14:03:26.013Z,27.60
2017-05-15T14:05:55.022Z,27.60
2017-05-15T14:08:23.689Z,27.60
2017-05-15T14:10:52.689Z,27.80
2017-05-15T14:13:21.690Z,27.30
2017-05-15T14:15:50.562Z,26.80
2017-05-15T14:18:19.569Z,27.50
2017-05-15T14:20:48.226Z,27.60
2017-05-15T14:23:16.895Z,27.70
2017-05-15T14:25:45.545Z,27.20
2017-05-15T14:28:14.185Z,25.50
2017-05-15T14:30:43.630Z,25.30
2017-05-15T14:33:13.117Z,25.40
2017-05-15T14:35:42.733Z,25.60
2017-05-15T14:38:11.417Z,25.90
2017-05-15T14:40:39.661Z,25.90
2017-05-15T14:43:08.680Z,25.80
2017-05-15T14:45:37.495Z,25.70
2017-05-15T14:48:06.144Z,25.60
2017-05-15T14:50:34.781Z,25.50
2017-05-15T14:53:03.453Z,24.90
2017-05-15T14:55:32.112Z,24.20
2017-05-15T14:58:00.757Z,24.00
2017-05-15T15:00:29.694Z,23.70
2017-05-15T15:02:58.341Z,23.30
2017-05-15T15:05:26.975Z,23.10
2017-05-15T15:07:55.653Z,22.80
2017-05-15T15:10:24.301Z,22.10
2017-05-15T15:12:52.952Z,22.30
2017-05-15T15:15:21.986Z,22.30
2017-05-15T15:17:50.901Z,22.20
2017-05-15T15:20:20.447Z,22.20
2017-05-15T15:22:49.491Z,22.20
2017-05-15T15:25:18.140Z,22.10
2017-05-15T15:27:46.788Z,22.20
2017-05-15T15:30:15.073Z,22.20
2017-05-15T15:32:43.333Z,22.10
2017-05-15T15:35:11.883Z,21.90
2017-05-15T15:37:40.552Z,21.30
2017-05-15T15:40:08.797Z,21.30
2017-05-15T15:42:37.067Z,21.40
2017-05-15T15:45:06.563Z,21.70
2017-05-15T15:47:34.810Z,21.70
2017-05-15T15:50:03.459Z,21.60
2017-05-15T15:52:32.427Z,21.70
2017-05-15T15:55:00.669Z,21.70
2017-05-15T15:57:29.298Z,21.50
2017-05-15T15:59:58.308Z,21.20
2017-05-15T16:02:26.946Z,21.20
2017-05-15T16:04:55.666Z,21.20
2017-05-15T16:07:24.957Z,21.20
2017-05-15T16:09:55.149Z,21.30
2017-05-15T16:12:24.072Z,21.40
2017-05-15T16:14:52.731Z,21.40
2017-05-15T16:17:22.259Z,21.40
2017-05-15T16:19:52.269Z,21.50
2017-05-15T16:22:20.915Z,21.50
2017-05-15T16:24:50.539Z,21.50
2017-05-15T16:27:19.534Z,21.40
2017-05-15T16:29:49.109Z,21.40
2017-05-15T16:32:18.861Z,21.30
2017-05-15T16:34:47.132Z,21.20
2017-05-15T16:37:15.787Z,21.20
2017-05-15T16:39:44.860Z,21.20
2017-05-15T16:42:13.500Z,21.20
2017-05-15T16:44:41.744Z,21.20
2017-05-15T16:47:10.032Z,21.20
2017-05-15T16:49:38.691Z,20.90
2017-05-15T16:52:08.671Z,20.80
2017-05-15T16:54:37.336Z,20.80
2017-05-15T16:57:06.014Z,20.70
2017-05-15T16:59:34.638Z,20.80
2017-05-15T17:02:02.913Z,20.80
2017-05-15T17:04:31.828Z,21.00
2017-05-15T17:07:01.025Z,21.00
2017-05-15T17:09:30.297Z,21.00
2017-05-15T17:11:58.939Z,21.00
2017-05-15T17:14:27.960Z,21.10
2017-05-15T17:16:58.300Z,21.00
2017-05-15T17:19:28.308Z,20.90
2017-05-15T17:21:58.690Z,20.90
2017-05-15T17:24:27.353Z,21.00
2017-05-15T17:26:56.033Z,20.90
2017-05-15T17:29:24.752Z,21.00
2017-05-15T17:31:53.029Z,21.00
2017-05-15T17:34:22.426Z,20.60
2017-05-15T17:36:51.448Z,20.50
2017-05-15T17:39:20.436Z,20.50
2017-05-15T17:41:49.063Z,20.40
2017-05-15T17:44:17.730Z,20.60
2017-05-15T17:46:45.986Z,20.60
2017-05-15T17:49:16.197Z,20.50
2017-05-15T17:51:44.841Z,20.50
2017-05-15T17:54:13.482Z,20.40
2017-05-15T17:56:42.541Z,20.40
2017-05-15T17:59:11.514Z,20.30
2017-05-15T18:01:40.056Z,20.30
2017-05-15T18:04:09.099Z,20.30
2017-05-15T18:06:37.782Z,20.20
2017-05-15T18:09:07.436Z,20.20
2017-05-15T18:11:36.541Z,20.20
2017-05-15T18:14:05.316Z,20.10
2017-05-15T18:16:33.990Z,20.10
2017-05-15T18:19:03.127Z,20.10
2017-05-15T18:21:32.034Z,20.10
2017-05-15T18:24:00.695Z,20.00
2017-05-15T18:26:29.365Z,20.00
2017-05-15T18:28:57.669Z,20.00
2017-05-15T18:31:26.366Z,19.90
2017-05-15T18:33:55.025Z,19.90
2017-05-15T18:36:23.699Z,19.80
2017-05-15T18:38:52.255Z,19.80
2017-05-15T18:41:21.304Z,19.80
2017-05-15T18:43:49.937Z,19.70
2017-05-15T18:46:18.645Z,19.70
2017-05-15T18:48:47.319Z,19.60
2017-05-15T18:51:15.827Z,19.60
2017-05-15T18:53:45.101Z,19.50
2017-05-15T18:56:13.867Z,19.50
2017-05-15T18:58:42.658Z,19.40
2017-05-15T19:01:11.482Z,19.40
2017-05-15T19:03:40.083Z,19.40
2017-05-15T19:06:09.684Z,19.40
2017-05-15T19:08:39.319Z,19.40
2017-05-15T19:11:09.379Z,19.40
2017-05-15T19:13:39.326Z,19.40
2017-05-15T19:16:08.940Z,19.40
2017-05-15T19:18:40.234Z,19.20
2017-05-15T19:21:10.137Z,19.10
2017-05-15T19:23:39.750Z,19.00
2017-05-15T19:26:09.963Z,19.00
2017-05-15T19:28:39.819Z,18.90
2017-05-15T19:31:10.273Z,18.90
2017-05-15T19:33:39.833Z,18.90
2017-05-15T19:36:09.442Z,18.60
2017-05-15T19:38:39.608Z,18.40
2017-05-15T19:41:09.390Z,18.20
2017-05-15T19:43:39.444Z,18.10
2017-05-15T19:46:09.825Z,18.10
2017-05-15T19:48:41.041Z,18.10
2017-05-15T19:51:10.822Z,18.10
2017-05-15T19:53:41.010Z,18.10
2017-05-15T19:56:11.615Z,17.80
2017-05-15T19:58:41.336Z,17.60
2017-05-15T20:01:12.170Z,17.50
2017-05-15T20:03:41.690Z,17.60
2017-05-15T20:06:11.342Z,17.80
2017-05-15T20:08:42.402Z,17.80
2017-05-15T20:11:11.200Z,17.80
2017-05-15T20:13:40.576Z,17.80
2017-05-15T20:16:09.755Z,17.80
2017-05-15T20:18:39.010Z,17.60
2017-05-15T20:21:07.751Z,17.50
2017-05-15T20:23:36.755Z,17.40
2017-05-15T20:26:05.013Z,17.40
2017-05-15T20:28:33.253Z,17.30
2017-05-15T20:31:02.577Z,17.50
2017-05-15T20:33:31.630Z,17.50
2017-05-15T20:36:00.266Z,17.50
2017-05-15T20:38:28.956Z,17.50
2017-05-15T20:40:57.627Z,17.50
2017-05-15T20:43:26.275Z,17.40
2017-05-15T20:45:55.486Z,17.30
2017-05-15T20:48:25.096Z,17.20
2017-05-15T20:50:53.744Z,17.10
2017-05-15T20:53:22.720Z,16.90
2017-05-15T20:55:51.409Z,16.90
2017-05-15T20:58:20.041Z,16.90
2017-05-15T21:00:49.801Z,16.70
2017-05-15T21:03:18.448Z,16.70
2017-05-15T21:05:47.449Z,16.90
2017-05-15T21:08:16.097Z,16.90
2017-05-15T21:10:45.118Z,17.00
2017-05-15T21:13:13.786Z,16.90
2017-05-15T21:15:42.426Z,16.90
2017-05-15T21:18:11.085Z,16.70
2017-05-15T21:20:39.763Z,16.60
2017-05-15T21:23:08.407Z,16.50
2017-05-15T21:25:36.661Z,16.50
2017-05-15T21:28:04.966Z,16.50
2017-05-15T21:30:33.613Z,16.40
2017-05-15T21:33:02.264Z,16.50
2017-05-15T21:35:30.924Z,16.50
2017-05-15T21:37:59.171Z,16.50
2017-05-15T21:40:27.428Z,16.60
2017-05-15T21:42:56.106Z,16.40
2017-05-15T21:45:24.734Z,16.50
2017-05-15T21:47:53.371Z,16.40
2017-05-15T21:50:21.630Z,16.50
2017-05-15T21:52:50.266Z,16.30
2017-05-15T21:55:18.919Z,16.20
2017-05-15T21:57:47.970Z,16.30
2017-05-15T22:00:16.841Z,16.10
2017-05-15T22:02:45.495Z,16.20
2017-05-15T22:05:14.537Z,16.40
2017-05-15T22:07:43.177Z,16.10
2017-05-15T22:10:11.828Z,16.10
2017-05-15T22:12:40.240Z,16.10
2017-05-15T22:15:08.879Z,16.10
2017-05-15T22:17:37.524Z,16.00
2017-05-15T22:20:06.337Z,16.00
2017-05-15T22:22:34.976Z,16.10
2017-05-15T22:25:03.605Z,16.00
2017-05-15T22:27:32.649Z,15.80
2017-05-15T22:30:01.283Z,15.80
2017-05-15T22:32:29.926Z,15.80
2017-05-15T22:34:58.581Z,15.90
2017-05-15T22:37:27.599Z,16.00
2017-05-15T22:39:56.242Z,16.00
2017-05-15T22:42:24.907Z,16.00
2017-05-15T22:44:53.556Z,16.00
2017-05-15T22:47:22.204Z,16.10
2017-05-15T22:49:51.617Z,16.10
2017-05-15T22:52:20.629Z,16.00
2017-05-15T22:54:49.265Z,16.00
2017-05-15T22:57:18.498Z,15.90
2017-05-15T22:59:47.133Z,15.90
2017-05-15T23:02:15.388Z,16.00
2017-05-15T23:04:44.035Z,15.80
2017-05-15T23:07:12.670Z,15.80
2017-05-15T23:09:41.298Z,15.80
2017-05-15T23:12:09.984Z,15.80
2017-05-15T23:14:38.225Z,15.80
2017-05-15T23:17:06.866Z,15.70
2017-05-15T23:19:35.531Z,15.70
2017-05-15T23:22:04.181Z,15.70
2017-05-15T23:24:32.809Z,15.70
2017-05-15T23:27:01.557Z,15.70
2017-05-15T23:29:29.802Z,15.70
2017-05-15T23:31:58.438Z,15.70
2017-05-15T23:34:26.791Z,15.70
2017-05-15T23:36:55.797Z,15.60
2017-05-15T23:39:24.451Z,15.60
2017-05-15T23:41:52.723Z,15.60
2017-05-15T23:44:21.363Z,15.60
2017-05-15T23:46:49.991Z,15.60
2017-05-15T23:49:18.903Z,15.70
2017-05-15T23:51:47.144Z,15.70
2017-05-15T23:54:15.768Z,15.70
2017-05-15T23:56:44.026Z,15.70
2017-05-15T23:59:12.661Z,15.70
